createdAt,value
2019-03-15T00:00:32.771Z,7.11
2019-03-15T00:03:04.710Z,7.06
2019-03-15T00:05:36.680Z,7.04
2019-03-15T00:08:12.649Z,7.08
2019-03-15T00:10:52.227Z,7.07
2019-03-15T00:13:25.756Z,7.08
2019-03-15T00:16:00.146Z,7.05
2019-03-15T00:18:37.358Z,7.09
2019-03-15T00:21:20.692Z,7.05
2019-03-15T00:24:08.530Z,7.08
2019-03-15T00:26:47.082Z,7.09
2019-03-15T00:29:29.109Z,7.08
2019-03-15T00:32:02.639Z,7.09
2019-03-15T00:34:34.717Z,7.09
2019-03-15T00:37:13.801Z,7.04
2019-03-15T00:39:51.386Z,7.08
2019-03-15T00:42:26.314Z,7.09
2019-03-15T00:45:04.617Z,7.07
2019-03-15T00:47:40.120Z,7.12
2019-03-15T00:50:17.813Z,7.14
2019-03-15T00:52:52.467Z,7.09
2019-03-15T00:55:26.787Z,7.17
2019-03-15T00:58:04.674Z,7.12
2019-03-15T01:00:38.360Z,7.15
2019-03-15T01:03:15.047Z,7.02
2019-03-15T01:05:52.783Z,7.01
2019-03-15T01:08:32.187Z,7.00
2019-03-15T01:11:08.639Z,7.07
2019-03-15T01:13:41.558Z,6.98
2019-03-15T01:16:15.226Z,6.90
2019-03-15T01:18:51.565Z,6.85
2019-03-15T01:21:26.075Z,6.74
2019-03-15T01:23:57.912Z,6.64
2019-03-15T01:26:31.406Z,6.46
2019-03-15T01:29:09.013Z,6.33
2019-03-15T01:31:42.507Z,6.28
2019-03-15T01:34:25.870Z,6.21
2019-03-15T01:36:59.280Z,6.22
2019-03-15T01:39:36.199Z,6.16
2019-03-15T01:42:09.684Z,6.33
2019-03-15T01:44:41.487Z,6.30
2019-03-15T01:47:13.325Z,6.39
2019-03-15T01:49:45.417Z,6.46
2019-03-15T01:52:17.416Z,6.48
2019-03-15T01:54:49.247Z,6.36
2019-03-15T01:57:21.094Z,6.45
2019-03-15T01:59:52.952Z,6.58
2019-03-15T02:02:24.822Z,6.61
2019-03-15T02:04:57.625Z,6.58
2019-03-15T02:07:29.534Z,6.67
2019-03-15T02:10:01.416Z,6.67
2019-03-15T02:12:33.421Z,6.75
2019-03-15T02:15:05.920Z,6.67
2019-03-15T02:17:37.807Z,6.58
2019-03-15T02:20:09.672Z,6.57
2019-03-15T02:22:41.575Z,6.58
2019-03-15T02:25:13.514Z,6.65
2019-03-15T02:27:45.337Z,6.57
2019-03-15T02:30:17.172Z,6.60
2019-03-15T02:32:49.047Z,6.64
2019-03-15T02:35:20.915Z,6.62
2019-03-15T02:37:52.789Z,6.63
2019-03-15T02:40:24.595Z,6.64
2019-03-15T02:42:56.449Z,6.54
2019-03-15T02:45:28.322Z,6.68
2019-03-15T02:48:00.247Z,6.68
2019-03-15T02:50:32.133Z,6.68
2019-03-15T02:53:03.979Z,6.59
2019-03-15T02:55:35.806Z,6.58
2019-03-15T02:58:07.668Z,6.57
2019-03-15T03:00:41.026Z,6.68
2019-03-15T03:03:13.195Z,6.66
2019-03-15T03:05:45.198Z,6.69
2019-03-15T03:08:17.061Z,6.62
2019-03-15T03:10:49.435Z,6.80
2019-03-15T03:13:21.399Z,6.61
2019-03-15T03:15:53.294Z,6.64
2019-03-15T03:18:25.159Z,6.80
2019-03-15T03:20:57.019Z,6.62
2019-03-15T03:23:28.939Z,6.66
2019-03-15T03:26:00.807Z,6.77
2019-03-15T03:28:32.686Z,6.78
2019-03-15T03:31:04.701Z,6.88
2019-03-15T03:33:36.818Z,6.85
2019-03-15T03:36:08.713Z,6.71
2019-03-15T03:38:40.658Z,6.83
2019-03-15T03:41:12.472Z,6.78
2019-03-15T03:43:44.463Z,6.79
2019-03-15T03:46:16.329Z,6.93
2019-03-15T03:48:49.405Z,6.93
2019-03-15T03:51:21.282Z,6.71
2019-03-15T03:53:53.384Z,6.83
2019-03-15T03:56:25.297Z,7.00
2019-03-15T03:58:57.153Z,7.01
2019-03-15T04:01:28.945Z,6.87
2019-03-15T04:04:00.847Z,6.93
2019-03-15T04:06:32.757Z,7.01
2019-03-15T04:09:04.753Z,7.15
2019-03-15T04:11:36.593Z,7.09
2019-03-15T04:14:08.381Z,7.03
2019-03-15T04:16:40.223Z,6.94
2019-03-15T04:19:12.068Z,6.97
2019-03-15T04:21:43.840Z,6.86
2019-03-15T04:24:15.689Z,7.06
2019-03-15T04:26:47.604Z,7.12
2019-03-15T04:29:23.273Z,7.02
2019-03-15T04:31:55.052Z,7.12
2019-03-15T04:34:28.419Z,7.38
2019-03-15T04:37:00.494Z,7.40
2019-03-15T04:39:32.347Z,7.56
2019-03-15T04:42:04.175Z,7.53
2019-03-15T04:44:35.943Z,7.58
2019-03-15T04:47:07.860Z,7.64
2019-03-15T04:49:39.694Z,7.69
2019-03-15T04:52:12.648Z,7.65
2019-03-15T04:54:44.496Z,7.62
2019-03-15T04:57:16.328Z,7.68
2019-03-15T04:59:48.256Z,7.65
2019-03-15T05:02:21.401Z,7.50
2019-03-15T05:04:54.361Z,7.56
2019-03-15T05:07:26.288Z,7.61
2019-03-15T05:09:58.143Z,7.49
2019-03-15T05:12:29.961Z,7.40
2019-03-15T05:15:01.889Z,7.46
2019-03-15T05:17:33.774Z,7.47
2019-03-15T05:20:06.374Z,7.47
2019-03-15T05:22:38.198Z,7.38
2019-03-15T05:25:12.343Z,7.46
2019-03-15T05:27:44.267Z,7.53
2019-03-15T05:30:16.152Z,7.64
2019-03-15T05:32:47.962Z,7.72
2019-03-15T05:35:19.778Z,7.68
2019-03-15T05:37:51.698Z,7.79
2019-03-15T05:40:23.507Z,7.86
2019-03-15T05:42:55.390Z,7.77
2019-03-15T05:45:27.271Z,7.86
2019-03-15T05:47:59.074Z,7.81
2019-03-15T05:50:30.890Z,7.90
2019-03-15T05:53:02.883Z,7.96
2019-03-15T05:55:34.685Z,7.97
2019-03-15T05:58:06.620Z,7.99
2019-03-15T06:00:38.491Z,7.95
2019-03-15T06:03:12.654Z,7.96
2019-03-15T06:05:44.764Z,8.09
2019-03-15T06:08:16.588Z,8.10
2019-03-15T06:10:48.486Z,8.07
2019-03-15T06:13:20.259Z,8.05
2019-03-15T06:15:52.030Z,8.17
2019-03-15T06:18:24.917Z,8.31
2019-03-15T06:20:56.763Z,8.21
2019-03-15T06:23:28.762Z,8.21
2019-03-15T06:26:00.647Z,8.04
2019-03-15T06:28:32.520Z,8.11
2019-03-15T06:31:04.406Z,8.00
2019-03-15T06:33:36.239Z,8.16
2019-03-15T06:36:08.093Z,8.36
2019-03-15T06:38:39.965Z,8.31
2019-03-15T06:41:14.348Z,8.29
2019-03-15T06:43:45.407Z,8.26
2019-03-15T06:46:17.327Z,8.36
2019-03-15T06:48:49.434Z,8.32
2019-03-15T06:51:21.321Z,8.30
2019-03-15T06:53:53.244Z,8.29
2019-03-15T06:56:25.135Z,8.36
2019-03-15T06:58:57.004Z,8.40
2019-03-15T07:01:28.863Z,8.38
2019-03-15T07:04:00.817Z,8.36
2019-03-15T07:06:33.091Z,8.35
2019-03-15T07:09:07.415Z,8.32
2019-03-15T07:11:39.731Z,8.40
2019-03-15T07:14:11.799Z,8.47
2019-03-15T07:16:43.839Z,8.48
2019-03-15T07:19:25.587Z,8.39
2019-03-15T07:21:49.768Z,8.36
2019-03-15T07:24:25.430Z,8.37
2019-03-15T07:26:55.723Z,8.61
2019-03-15T07:29:27.813Z,8.64
2019-03-15T07:31:59.843Z,8.55
2019-03-15T07:34:31.921Z,8.58
2019-03-15T07:37:03.867Z,8.67
2019-03-15T07:39:35.926Z,8.95
2019-03-15T07:42:07.925Z,8.98
2019-03-15T07:44:39.821Z,8.94
2019-03-15T07:47:11.819Z,8.83
2019-03-15T07:49:44.006Z,8.79
2019-03-15T07:52:16.137Z,8.75
2019-03-15T07:54:48.075Z,8.79
2019-03-15T07:57:19.951Z,8.81
2019-03-15T07:59:52.158Z,8.82
2019-03-15T08:02:28.205Z,8.86
2019-03-15T08:05:00.392Z,9.08
2019-03-15T08:07:37.795Z,9.23
2019-03-15T08:10:08.480Z,9.13
2019-03-15T08:12:42.315Z,9.11
2019-03-15T08:15:14.721Z,9.45
2019-03-15T08:17:47.087Z,9.53
2019-03-15T08:20:19.157Z,9.51
2019-03-15T08:22:52.396Z,9.45
2019-03-15T08:25:24.414Z,9.30
2019-03-15T08:27:58.540Z,9.43
2019-03-15T08:30:30.487Z,9.68
2019-03-15T08:33:10.017Z,9.70
2019-03-15T08:35:36.048Z,10.13
2019-03-15T08:38:08.070Z,10.34
2019-03-15T08:40:40.005Z,10.43
2019-03-15T08:43:11.894Z,10.57
2019-03-15T08:45:43.878Z,10.64
2019-03-15T08:48:17.773Z,10.49
2019-03-15T08:50:49.704Z,10.32
2019-03-15T08:53:21.506Z,10.52
2019-03-15T08:55:53.706Z,10.57
2019-03-15T08:58:25.786Z,10.76
2019-03-15T09:00:57.814Z,11.01
2019-03-15T09:03:34.573Z,11.06
2019-03-15T09:06:10.377Z,11.28
2019-03-15T09:08:46.470Z,11.16
2019-03-15T09:11:18.518Z,11.27
2019-03-15T09:13:50.534Z,11.21
2019-03-15T09:16:22.652Z,10.92
2019-03-15T09:18:59.712Z,11.01
2019-03-15T09:21:34.769Z,10.95
2019-03-15T09:24:10.532Z,11.01
2019-03-15T09:26:45.357Z,11.44
2019-03-15T09:29:17.298Z,11.57
2019-03-15T09:32:05.460Z,11.87
2019-03-15T09:34:31.830Z,11.97
2019-03-15T09:37:04.202Z,11.90
2019-03-15T09:39:39.338Z,12.11
2019-03-15T09:42:13.950Z,11.72
2019-03-15T09:44:48.336Z,11.86
2019-03-15T09:47:25.324Z,11.87
2019-03-15T09:50:00.904Z,11.64
2019-03-15T09:52:43.914Z,11.73
2019-03-15T09:55:16.988Z,11.86
2019-03-15T09:57:53.248Z,11.82
2019-03-15T10:00:27.819Z,11.71
2019-03-15T10:03:02.822Z,11.42
2019-03-15T10:05:37.366Z,11.38
2019-03-15T10:08:23.506Z,11.24
2019-03-15T10:10:57.265Z,11.31
2019-03-15T10:13:36.757Z,11.62
2019-03-15T10:16:15.130Z,11.97
2019-03-15T10:18:52.482Z,11.88
2019-03-15T10:21:29.081Z,12.00
2019-03-15T10:24:02.108Z,12.65
2019-03-15T10:26:35.952Z,12.63
2019-03-15T10:29:15.612Z,12.88
2019-03-15T10:31:44.596Z,12.54
2019-03-15T10:34:25.440Z,12.30
2019-03-15T10:36:57.478Z,12.11
2019-03-15T10:39:29.386Z,11.92
2019-03-15T10:42:01.297Z,11.86
2019-03-15T10:44:36.185Z,11.84
2019-03-15T10:47:14.046Z,11.73
2019-03-15T10:49:57.182Z,11.80
2019-03-15T10:52:29.206Z,11.53
2019-03-15T10:55:01.034Z,11.62
2019-03-15T10:57:32.992Z,12.16
2019-03-15T11:00:08.570Z,12.71
2019-03-15T11:02:43.446Z,12.98
2019-03-15T11:05:19.769Z,13.02
2019-03-15T11:07:51.649Z,12.46
2019-03-15T11:10:23.832Z,12.68
2019-03-15T11:13:09.572Z,13.21
2019-03-15T11:15:54.279Z,13.41
2019-03-15T11:18:31.012Z,13.47
2019-03-15T11:21:07.960Z,13.84
2019-03-15T11:23:41.023Z,13.61
2019-03-15T11:26:17.169Z,13.14
2019-03-15T11:28:50.678Z,13.56
2019-03-15T11:31:22.567Z,13.57
2019-03-15T11:33:56.178Z,13.07
2019-03-15T11:36:29.665Z,12.99
2019-03-15T11:39:01.751Z,13.33
2019-03-15T11:41:36.487Z,13.78
2019-03-15T11:44:09.859Z,13.91
2019-03-15T11:46:41.747Z,13.90
2019-03-15T11:49:15.990Z,13.48
2019-03-15T11:51:52.262Z,13.23
2019-03-15T11:54:23.833Z,13.69
2019-03-15T11:56:55.645Z,13.22
2019-03-15T11:59:27.489Z,13.34
2019-03-15T12:02:04.219Z,13.28
2019-03-15T12:04:35.428Z,13.49
2019-03-15T12:07:10.645Z,13.75
2019-03-15T12:09:46.403Z,13.58
2019-03-15T12:12:24.258Z,13.06
2019-03-15T12:14:56.110Z,12.56
2019-03-15T12:17:29.585Z,12.74
2019-03-15T12:26:14.739Z,13.27
2019-03-15T12:28:46.858Z,13.31
2019-03-15T12:31:18.884Z,13.44
2019-03-15T12:33:52.816Z,13.44
2019-03-15T12:36:24.733Z,13.97
2019-03-15T12:38:59.409Z,14.60
2019-03-15T12:41:38.527Z,14.19
2019-03-15T12:44:13.654Z,13.83
2019-03-15T12:46:44.143Z,13.30
2019-03-15T12:49:25.486Z,13.04
2019-03-15T12:52:09.009Z,13.72
2019-03-15T12:54:52.980Z,13.16
2019-03-15T12:57:32.317Z,12.02
2019-03-15T13:00:09.817Z,11.92
2019-03-15T13:02:47.177Z,12.21
2019-03-15T13:05:25.024Z,12.81
2019-03-15T13:08:03.299Z,12.90
2019-03-15T13:10:41.433Z,12.27
2019-03-15T13:13:13.362Z,11.75
2019-03-15T13:16:54.537Z,11.48
2019-03-15T13:19:54.528Z,11.68
2019-03-15T13:22:41.881Z,11.95
2019-03-15T13:25:18.141Z,12.40
2019-03-15T13:46:27.513Z,12.08
2019-03-15T13:49:03.288Z,11.77
2019-03-15T13:51:35.381Z,11.94
2019-03-15T13:54:07.609Z,11.84
2019-03-15T13:56:42.054Z,12.17
2019-03-15T13:59:44.215Z,12.16
2019-03-15T14:02:17.278Z,11.89
2019-03-15T14:05:08.389Z,11.50
2019-03-15T14:07:56.230Z,11.25
2019-03-15T14:10:34.222Z,11.25
2019-03-15T14:16:57.535Z,10.57
2019-03-15T14:19:34.201Z,10.76
2019-03-15T14:22:12.116Z,10.55
2019-03-15T14:28:00.395Z,10.52
2019-03-15T14:30:38.766Z,10.62
2019-03-15T14:33:14.185Z,10.43
2019-03-15T14:35:49.076Z,10.22
2019-03-15T14:38:23.406Z,9.98
2019-03-15T14:40:54.865Z,9.98
2019-03-15T14:43:28.198Z,10.01
2019-03-15T14:46:00.294Z,9.76
2019-03-15T14:48:33.933Z,9.66
2019-03-15T14:51:06.438Z,9.62
2019-03-15T14:53:38.650Z,9.59
2019-03-15T14:56:13.875Z,9.56
2019-03-15T14:58:45.880Z,9.58
2019-03-15T15:01:18.364Z,9.45
2019-03-15T15:03:50.312Z,9.58
2019-03-15T15:06:24.349Z,9.40
2019-03-15T15:08:56.690Z,9.32
2019-03-15T15:11:41.524Z,9.16
2019-03-15T15:14:15.946Z,9.09
2019-03-15T15:16:48.415Z,9.13
2019-03-15T15:19:25.796Z,8.96
2019-03-15T15:21:57.768Z,8.76
2019-03-15T15:24:35.097Z,8.73
2019-03-15T15:27:09.594Z,8.78
2019-03-15T15:29:42.447Z,8.65
2019-03-15T15:32:26.111Z,8.53
2019-03-15T15:35:05.824Z,8.62
2019-03-15T15:37:37.698Z,8.66
2019-03-15T15:40:15.419Z,8.69
2019-03-15T15:42:54.502Z,8.75
2019-03-15T15:45:32.426Z,8.70
2019-03-15T15:48:06.251Z,8.56
2019-03-15T15:50:45.415Z,8.49
2019-03-15T15:53:20.558Z,8.44
2019-03-15T15:55:57.401Z,8.46
2019-03-15T15:58:31.252Z,8.53
2019-03-15T16:01:11.028Z,8.44
2019-03-15T16:03:45.848Z,8.56
2019-03-15T16:06:18.013Z,8.55
2019-03-15T16:08:50.045Z,8.67
2019-03-15T16:11:21.952Z,8.82
2019-03-15T16:13:53.982Z,8.79
2019-03-15T16:16:27.487Z,8.83
2019-03-15T16:19:01.017Z,8.96
2019-03-15T16:21:32.988Z,9.11
2019-03-15T16:24:05.140Z,9.00
2019-03-15T16:26:37.408Z,8.94
2019-03-15T16:29:09.531Z,8.84
2019-03-15T16:31:41.708Z,8.76
2019-03-15T16:34:13.865Z,8.84
2019-03-15T16:36:45.899Z,8.87
2019-03-15T16:39:17.872Z,8.85
2019-03-15T16:41:50.633Z,8.84
2019-03-15T16:44:22.582Z,8.91
2019-03-15T16:46:54.507Z,8.88
2019-03-15T16:49:26.432Z,8.88
2019-03-15T16:51:58.434Z,8.84
2019-03-15T16:54:30.342Z,8.79
2019-03-15T16:57:02.375Z,8.77
2019-03-15T16:59:34.265Z,8.70
2019-03-15T17:02:06.381Z,8.67
2019-03-15T17:04:38.342Z,8.62
2019-03-15T17:07:10.323Z,8.71
2019-03-15T17:09:44.454Z,8.62
2019-03-15T17:12:17.258Z,8.51
2019-03-15T17:14:49.220Z,8.49
2019-03-15T17:17:45.621Z,8.58
2019-03-15T17:20:21.292Z,8.64
2019-03-15T17:22:55.179Z,8.70
2019-03-15T17:25:33.582Z,8.81
2019-03-15T17:28:15.230Z,8.88
2019-03-15T17:31:09.110Z,8.95
2019-03-15T17:33:32.053Z,9.04
2019-03-15T17:36:03.912Z,9.09
2019-03-15T17:38:35.967Z,9.18
2019-03-15T17:41:08.053Z,9.27
2019-03-15T17:43:39.973Z,9.32
2019-03-15T17:46:13.156Z,9.40
2019-03-15T17:48:47.860Z,9.47
2019-03-15T17:51:20.905Z,9.59
2019-03-15T17:54:00.018Z,9.63
2019-03-15T17:56:32.024Z,9.69
2019-03-15T17:59:12.462Z,9.71
2019-03-15T18:01:39.602Z,9.76
2019-03-15T18:04:11.849Z,9.81
2019-03-15T18:06:44.275Z,9.89
2019-03-15T18:09:19.322Z,9.90
2019-03-15T18:11:56.897Z,9.90
2019-03-15T18:23:02.669Z,10.05
2019-03-15T18:25:34.888Z,10.11
2019-03-15T18:28:08.534Z,10.10
2019-03-15T18:30:40.581Z,10.24
2019-03-15T18:33:12.752Z,10.41
2019-03-15T18:35:49.430Z,10.38
2019-03-15T18:38:23.281Z,10.12
2019-03-15T18:40:59.099Z,9.98
2019-03-15T18:43:34.869Z,9.94
2019-03-15T18:54:33.345Z,10.24
2019-03-15T18:57:09.617Z,10.24
2019-03-15T18:59:52.667Z,10.25
2019-03-15T19:02:21.873Z,9.95
2019-03-15T19:05:14.786Z,9.72
2019-03-15T19:07:52.283Z,10.09
2019-03-15T19:10:26.594Z,9.99
2019-03-15T19:13:13.263Z,10.09
2019-03-15T19:48:56.848Z,10.30
2019-03-15T19:51:32.038Z,10.33
2019-03-15T19:54:08.284Z,10.31
2019-03-15T19:56:42.325Z,10.28
2019-03-15T19:59:14.858Z,10.31
2019-03-15T20:01:47.876Z,10.28
2019-03-15T20:04:21.746Z,10.12
2019-03-15T20:06:54.347Z,10.13
2019-03-15T20:09:29.499Z,10.05
2019-03-15T20:12:01.696Z,10.04
2019-03-15T20:14:35.336Z,10.16
2019-03-15T20:17:14.413Z,10.06
2019-03-15T20:19:46.790Z,9.96
2019-03-15T20:22:26.386Z,9.94
2019-03-15T20:24:57.243Z,10.16
2019-03-15T20:27:31.153Z,10.25
2019-03-15T20:30:03.892Z,10.18
2019-03-15T20:32:38.881Z,10.25
2019-03-15T20:35:14.632Z,10.23
2019-03-15T20:37:46.905Z,10.03
2019-03-15T20:40:19.060Z,9.77
2019-03-15T20:42:51.204Z,9.61
2019-03-15T20:45:26.657Z,9.35
2019-03-15T20:47:58.944Z,9.16
2019-03-15T20:50:45.886Z,9.29
2019-03-15T20:53:12.696Z,9.15
2019-03-15T20:55:42.788Z,9.04
2019-03-15T20:58:15.180Z,9.00
2019-03-15T21:00:47.392Z,8.87
2019-03-15T21:03:20.098Z,8.77
2019-03-15T21:05:52.308Z,8.81
2019-03-15T21:08:24.692Z,8.88
2019-03-15T21:10:56.919Z,8.87
2019-03-15T21:13:33.892Z,8.79
2019-03-15T21:16:05.330Z,8.74
2019-03-15T21:18:39.206Z,8.74
2019-03-15T21:21:13.000Z,8.68
2019-03-15T21:23:47.313Z,8.68
2019-03-15T21:26:19.179Z,8.67
2019-03-15T21:28:56.526Z,8.75
2019-03-15T21:31:29.724Z,8.67
2019-03-15T21:34:02.144Z,8.68
2019-03-15T21:36:34.768Z,8.64
2019-03-15T21:39:13.265Z,8.62
2019-03-15T21:45:09.956Z,8.74
2019-03-15T21:49:30.267Z,8.76
2019-03-15T21:50:34.744Z,8.69
2019-03-15T21:54:10.993Z,8.70
2019-03-15T21:56:23.619Z,8.62
2019-03-15T21:58:58.172Z,8.70
2019-03-15T22:01:32.403Z,8.64
2019-03-15T22:04:06.569Z,8.69
2019-03-15T22:06:56.150Z,8.79
2019-03-15T22:09:28.619Z,8.63
2019-03-15T22:12:01.464Z,8.57
2019-03-15T22:14:37.360Z,8.57
2019-03-15T22:17:17.668Z,8.48
2019-03-15T22:20:01.065Z,8.54
2019-03-15T22:22:35.153Z,8.56
2019-03-15T22:25:07.970Z,8.49
2019-03-15T22:27:57.505Z,8.43
2019-03-15T22:30:31.137Z,8.41
2019-03-15T22:33:03.292Z,8.24
2019-03-15T22:35:36.487Z,8.30
2019-03-15T22:38:08.539Z,8.24
2019-03-15T22:40:40.746Z,8.16
2019-03-15T22:43:13.195Z,7.99
2019-03-15T22:45:45.380Z,7.94
2019-03-15T22:48:17.373Z,7.92
2019-03-15T22:50:49.400Z,7.77
2019-03-15T22:53:21.552Z,7.79
2019-03-15T22:55:53.508Z,7.91
2019-03-15T22:58:25.621Z,7.88
2019-03-15T23:00:57.729Z,7.86
2019-03-15T23:03:31.251Z,7.86
2019-03-15T23:06:03.297Z,7.84
2019-03-15T23:08:35.385Z,7.82
2019-03-15T23:11:07.376Z,7.85
2019-03-15T23:13:39.872Z,7.87
2019-03-15T23:16:12.072Z,7.83
2019-03-15T23:18:45.469Z,7.79
2019-03-15T23:21:17.686Z,7.68
2019-03-15T23:23:49.816Z,7.56
2019-03-15T23:26:21.763Z,7.58
2019-03-15T23:28:53.769Z,7.57
2019-03-15T23:31:25.891Z,7.53
2019-03-15T23:33:57.828Z,7.45
2019-03-15T23:36:29.869Z,7.55
2019-03-15T23:39:01.942Z,7.65
2019-03-15T23:41:34.423Z,7.68
2019-03-15T23:44:06.445Z,7.64
2019-03-15T23:46:38.517Z,7.65
2019-03-15T23:49:10.459Z,7.63
2019-03-15T23:51:42.554Z,7.66
2019-03-15T23:54:14.583Z,7.56
2019-03-15T23:56:46.580Z,7.53
2019-03-15T23:59:18.470Z,7.58
